Time;durP1;ratioP1;P1;durP2;ratioP2;P2;SDS_P1;SDS_P2;PMS_P1;PMS_P2;Temp;Humidity;BMP_temperature;BMP_pressure;BME280_temperature;BME280_humidity;BME280_pressure;Samples;Min_cycle;Max_cycle;Signal;HPM_P1;HPM_P2
2021/05/04 00:00:04;;;;;;;43.15;7.60;;;;;;;11.74;83.27;98568.22;5007510;28;20101;-90
2021/05/04 00:02:29;;;;;;;41.00;5.65;;;;;;;11.50;84.21;98557.41;4992735;28;20034;-92
2021/05/04 00:04:54;;;;;;;38.35;5.35;;;;;;;11.69;81.85;98563.44;4993048;28;20027;-91
2021/05/04 00:07:20;;;;;;;34.28;5.38;;;;;;;11.32;83.88;98554.84;4992922;28;20034;-92
2021/05/04 00:09:45;;;;;;;32.50;6.00;;;;;;;11.36;83.75;98542.22;4992961;28;20026;-90
2021/05/04 00:12:11;;;;;;;28.30;4.97;;;;;;;11.76;82.36;98546.03;4975624;28;20022;-91
2021/05/04 00:14:36;;;;;;;40.15;8.10;;;;;;;11.73;82.51;98551.63;4996008;28;20030;-92
2021/05/04 00:17:03;;;;;;;37.75;6.43;;;;;;;11.35;83.74;98561.59;5012433;28;20391;-91
2021/05/04 00:19:29;;;;;;;32.85;5.05;;;;;;;11.15;84.99;98537.31;5012315;28;20390;-90
2021/05/04 00:21:54;;;;;;;34.60;4.80;;;;;;;11.67;83.24;98547.81;5012529;28;20026;-90
2021/05/04 00:24:19;;;;;;;43.70;6.25;;;;;;;11.63;82.26;98559.63;5012285;28;20037;-90
2021/05/04 00:26:45;;;;;;;29.38;5.65;;;;;;;11.76;81.52;98559.19;4995230;28;20056;-91
2021/05/04 00:29:10;;;;;;;38.67;6.35;;;;;;;11.69;81.89;98574.78;4992573;28;20037;-91
2021/05/04 00:31:37;;;;;;;44.70;5.95;;;;;;;11.51;82.90;98556.44;4992705;28;20046;-91
2021/05/04 00:34:02;;;;;;;33.70;5.88;;;;;;;11.48;83.45;98542.78;4992527;28;20485;-91
2021/05/04 00:36:28;;;;;;;32.17;6.35;;;;;;;11.56;83.48;98542.00;4992575;28;20030;-91
2021/05/04 00:38:53;;;;;;;45.70;5.97;;;;;;;11.34;83.42;98546.81;4975232;28;20070;-92
2021/05/04 00:41:18;;;;;;;31.25;4.90;;;;;;;11.80;82.43;98536.84;5007164;28;20384;-91
2021/05/04 00:43:44;;;;;;;33.30;4.85;;;;;;;11.58;82.60;98532.16;5012075;28;20029;-92
2021/05/04 00:46:09;;;;;;;38.30;6.95;;;;;;;11.50;83.73;98546.91;5012255;28;20030;-91
2021/05/04 00:48:35;;;;;;;42.83;6.68;;;;;;;11.46;84.98;98561.34;5012103;28;20030;-91
2021/05/04 00:51:00;;;;;;;39.30;5.80;;;;;;;11.50;84.29;98559.22;5010791;28;20194;-92
2021/05/04 00:53:26;;;;;;;36.95;5.25;;;;;;;11.36;85.14;98544.84;5011111;28;20053;-91
2021/05/04 00:55:52;;;;;;;28.23;5.07;;;;;;;11.79;82.83;98579.06;5002002;28;20041;-91
2021/05/04 00:58:17;;;;;;;31.25;5.35;;;;;;;11.24;85.24;98546.91;4996305;28;20109;-92
2021/05/04 01:00:43;;;;;;;32.17;5.65;;;;;;;11.70;83.60;98573.78;4996293;28;20026;-91
2021/05/04 01:03:10;;;;;;;32.30;5.10;;;;;;;11.41;86.10;98574.09;4996590;28;20039;-91
2021/05/04 01:05:36;;;;;;;28.55;4.72;;;;;;;11.50;85.28;98567.09;4996238;28;20030;-91
2021/05/04 01:08:02;;;;;;;38.85;4.88;;;;;;;11.69;83.15;98566.06;4996123;28;20161;-91
2021/05/04 01:10:27;;;;;;;23.75;3.88;;;;;;;11.46;84.66;98584.16;5010492;28;20049;-91
2021/05/04 01:12:53;;;;;;;27.23;4.25;;;;;;;11.38;84.92;98579.69;5016079;28;20072;-92
2021/05/04 01:15:19;;;;;;;29.13;4.82;;;;;;;11.24;84.37;98575.00;5015820;28;20084;-91
2021/05/04 01:17:44;;;;;;;24.27;4.15;;;;;;;11.55;82.26;98566.63;5015785;28;20026;-89
2021/05/04 01:20:10;;;;;;;23.02;3.38;;;;;;;11.84;81.73;98564.47;5010371;28;20036;-90
2021/05/04 01:22:36;;;;;;;20.52;3.47;;;;;;;11.15;84.60;98579.34;5004971;28;20472;-90
2021/05/04 01:25:03;;;;;;;26.33;4.45;;;;;;;11.26;83.33;98581.72;5015497;28;20026;-90
2021/05/04 01:27:28;;;;;;;26.92;5.30;;;;;;;11.36;81.75;98597.41;5015686;28;20116;-91
2021/05/04 01:29:53;;;;;;;18.85;3.45;;;;;;;11.21;81.99;98583.16;5015500;28;20060;-91
2021/05/04 01:32:20;;;;;;;15.95;2.40;;;;;;;11.54;80.73;98575.50;5015445;28;20037;-92
2021/05/04 01:34:45;;;;;;;23.55;3.88;;;;;;;11.23;81.62;98591.72;5012892;28;20058;-91
2021/05/04 01:37:10;;;;;;;17.92;3.47;;;;;;;11.29;81.41;98596.34;4978171;28;20144;-92
2021/05/04 01:39:45;;;;;;;17.05;3.25;;;;;;;11.80;79.38;98589.44;4995619;28;20022;-91
2021/05/04 01:42:14;;;;;;;23.08;3.80;;;;;;;11.81;79.09;98601.63;4995636;28;20026;-91
2021/05/04 01:44:40;;;;;;;24.20;3.55;;;;;;;11.44;81.95;98605.34;4995547;28;20054;-90
2021/05/04 01:47:05;;;;;;;22.58;3.05;;;;;;;11.60;80.33;98607.25;4995428;28;20518;-91
2021/05/04 01:49:31;;;;;;;25.38;3.60;;;;;;;11.30;81.96;98598.84;4997464;28;20376;-90
2021/05/04 01:51:57;;;;;;;22.90;3.63;;;;;;;11.59;80.67;98607.41;5015061;28;20030;-90
2021/05/04 01:54:24;;;;;;;26.42;4.55;;;;;;;11.47;80.55;98607.69;5015054;28;20029;-90
2021/05/04 01:56:54;;;;;;;18.20;2.63;;;;;;;12.03;79.10;98584.50;5014773;28;20133;-89
2021/05/04 01:59:21;;;;;;;26.52;4.65;;;;;;;11.93;78.19;98588.22;5014818;28;20125;-90
2021/05/04 02:01:46;;;;;;;22.50;3.28;;;;;;;11.81;78.23;98580.59;5014724;28;20148;-90
2021/05/04 02:04:12;;;;;;;23.92;3.50;;;;;;;11.43;81.17;98600.22;5013115;28;20483;-90
2021/05/04 02:06:37;;;;;;;24.20;3.78;;;;;;;11.48;81.40;98580.41;4994570;28;20553;-91
2021/05/04 02:09:08;;;;;;;20.25;3.13;;;;;;;11.66;81.42;98582.16;4995081;28;20039;-90
2021/05/04 02:11:33;;;;;;;22.50;4.45;;;;;;;11.78;82.36;98590.59;4994963;28;20093;-89
2021/05/04 02:13:59;;;;;;;27.75;5.32;;;;;;;11.64;82.31;98594.63;4995194;28;20035;-90
2021/05/04 02:16:25;;;;;;;23.17;3.53;;;;;;;11.93;81.71;98585.59;5009861;28;20388;-90
2021/05/04 02:18:51;;;;;;;22.83;4.10;;;;;;;11.63;82.74;98587.72;5015004;28;20144;-90
2021/05/04 02:21:17;;;;;;;27.67;3.55;;;;;;;11.58;83.81;98597.88;5014323;28;20022;-91
2021/05/04 02:23:43;;;;;;;18.83;4.00;;;;;;;11.52;84.65;98587.00;5015933;28;20114;-90
2021/05/04 02:26:09;;;;;;;22.02;3.40;;;;;;;11.66;83.78;98613.69;5015633;28;20096;-90
2021/05/04 02:28:34;;;;;;;15.80;3.40;;;;;;;11.68;83.13;98585.44;5015014;28;20029;-91
2021/05/04 02:31:00;;;;;;;23.10;3.83;;;;;;;11.29;85.08;98594.56;5004561;28;20563;-91
2021/05/04 02:33:25;;;;;;;22.40;3.45;;;;;;;11.58;83.37;98568.97;4996070;28;20030;-92
2021/05/04 02:35:51;;;;;;;30.83;6.25;;;;;;;11.70;83.86;98572.97;4994963;28;20109;-91
2021/05/04 02:38:17;;;;;;;17.38;3.67;;;;;;;12.18;81.54;98561.03;4995255;28;20417;-91
2021/05/04 02:40:42;;;;;;;20.02;3.50;;;;;;;12.08;82.11;98570.88;5001051;28;20394;-91
2021/05/04 02:43:07;;;;;;;20.08;3.72;;;;;;;11.37;85.55;98575.38;5004651;28;20011;-90
2021/05/04 02:45:32;;;;;;;22.25;3.22;;;;;;;11.40;86.12;98577.72;5019885;28;20022;-90
2021/05/04 02:47:58;;;;;;;21.23;3.67;;;;;;;11.04;87.74;98593.56;5024451;28;20041;-88
2021/05/04 02:50:23;;;;;;;15.80;2.38;;;;;;;11.30;87.04;98585.69;5030342;28;20033;-91
2021/05/04 02:52:49;;;;;;;18.02;3.05;;;;;;;10.75;88.75;98587.72;5015491;28;20030;-88
2021/05/04 02:55:15;;;;;;;14.82;2.55;;;;;;;10.59;89.74;98575.25;5030713;28;20030;-89
2021/05/04 02:57:40;;;;;;;22.50;3.33;;;;;;;11.27;86.69;98585.19;5001678;28;20536;-90
2021/05/04 03:00:06;;;;;;;15.15;3.20;;;;;;;11.25;86.25;98592.38;5001163;28;20030;-90
2021/05/04 03:02:31;;;;;;;15.85;2.97;;;;;;;11.03;87.30;98585.81;5004369;28;20058;-88
2021/05/04 03:04:57;;;;;;;27.17;3.97;;;;;;;10.97;85.72;98594.31;5008814;28;20014;-89
2021/05/04 03:07:22;;;;;;;18.50;3.63;;;;;;;11.18;84.94;98617.63;5008426;28;20026;-88
2021/05/04 03:09:47;;;;;;;11.80;2.75;;;;;;;11.03;83.83;98609.47;5006972;28;20082;-89
2021/05/04 03:12:13;;;;;;;9.07;1.77;;;;;;;11.00;80.46;98622.88;5021342;28;20482;-88
2021/05/04 03:14:38;;;;;;;7.43;1.70;;;;;;;10.57;80.43;98617.41;5022241;28;20028;-89
2021/05/04 03:17:03;;;;;;;7.90;1.80;;;;;;;10.96;77.46;98611.88;5016393;28;20054;-89
2021/05/04 03:19:29;;;;;;;7.60;1.58;;;;;;;10.84;78.27;98626.19;5024735;28;20022;-89
2021/05/04 03:21:54;;;;;;;12.95;1.40;;;;;;;10.49;80.11;98646.19;5026556;28;20021;-88
2021/05/04 03:24:19;;;;;;;8.75;1.33;;;;;;;10.66;78.63;98653.25;5019830;28;20030;-90
2021/05/04 03:26:45;;;;;;;10.65;3.33;;;;;;;10.90;78.93;98644.81;5000195;28;20023;-89
2021/05/04 03:29:11;;;;;;;8.00;1.52;;;;;;;10.81;77.75;98650.94;5000435;28;20029;-90
2021/05/04 03:31:36;;;;;;;9.18;1.48;;;;;;;10.52;78.84;98664.22;5002580;28;20058;-90
2021/05/04 03:34:02;;;;;;;4.93;1.17;;;;;;;10.85;77.78;98675.91;4993893;28;20097;-91
2021/05/04 03:36:27;;;;;;;8.85;1.55;;;;;;;10.32;79.24;98677.44;4993739;28;20238;-90
2021/05/04 03:38:52;;;;;;;5.80;1.10;;;;;;;10.01;81.86;98683.88;4994332;28;20062;-90
2021/05/04 03:41:18;;;;;;;9.88;2.13;;;;;;;10.01;81.47;98697.00;4995424;28;20029;-91
2021/05/04 03:43:43;;;;;;;7.32;2.28;;;;;;;10.06;82.16;98694.78;5013381;28;20028;-90
2021/05/04 03:46:08;;;;;;;12.38;1.60;;;;;;;10.28;83.87;98710.16;5013147;28;20045;-91
2021/05/04 03:48:34;;;;;;;6.47;1.60;;;;;;;10.49;83.04;98715.22;5013196;28;20075;-90
2021/05/04 03:50:59;;;;;;;7.65;1.58;;;;;;;10.06;86.15;98729.69;5012906;28;20073;-91
2021/05/04 03:53:25;;;;;;;4.03;1.20;;;;;;;9.65;88.26;98728.25;5013124;28;20026;-91
2021/05/04 03:55:50;;;;;;;9.80;1.38;;;;;;;10.08;86.47;98745.28;4994083;28;20066;-90
2021/05/04 03:58:16;;;;;;;9.68;2.03;;;;;;;10.03;86.85;98739.63;4993255;28;20062;-90
2021/05/04 04:00:41;;;;;;;7.97;1.25;;;;;;;10.26;85.11;98729.63;4994557;28;20031;-90
2021/05/04 04:03:07;;;;;;;6.53;1.35;;;;;;;10.16;84.39;98752.44;4994087;28;20045;-89
2021/05/04 04:05:32;;;;;;;4.90;0.80;;;;;;;9.59;84.84;98747.97;4975472;28;20026;-92
2021/05/04 04:07:58;;;;;;;4.53;0.85;;;;;;;9.57;83.10;98754.31;4993046;28;20477;-90
2021/05/04 04:10:23;;;;;;;6.07;1.02;;;;;;;9.82;83.38;98753.75;4992904;28;20358;-91
2021/05/04 04:12:48;;;;;;;4.35;1.33;;;;;;;9.99;80.00;98762.72;4992998;28;20492;-90
2021/05/04 04:15:14;;;;;;;2.80;0.65;;;;;;;9.59;79.45;98758.44;4993003;28;20030;-90
2021/05/04 04:17:40;;;;;;;3.50;0.88;;;;;;;9.52;78.95;98773.91;4993128;28;20019;-90
2021/05/04 04:20:07;;;;;;;4.40;0.80;;;;;;;9.34;79.58;98780.81;4993905;28;20548;-91
2021/05/04 04:22:34;;;;;;;9.93;0.93;;;;;;;9.26;79.78;98788.47;4993812;28;20038;-90
2021/05/04 04:24:59;;;;;;;5.55;0.75;;;;;;;9.22;79.94;98792.34;4992436;28;20475;-91
2021/05/04 04:27:25;;;;;;;5.55;0.93;;;;;;;9.51;77.28;98785.34;4990768;28;20040;-92
2021/05/04 04:29:50;;;;;;;1.92;0.50;;;;;;;9.05;81.06;98793.84;4992318;28;20022;-90
2021/05/04 04:32:16;;;;;;;2.90;0.57;;;;;;;9.75;77.38;98791.16;4992934;28;20465;-92
2021/05/04 04:34:41;;;;;;;3.65;1.13;;;;;;;9.38;79.78;98790.03;4992500;28;20370;-91
2021/05/04 04:37:07;;;;;;;1.98;0.60;;;;;;;9.53;78.34;98795.69;4992554;28;20049;-91
2021/05/04 04:39:32;;;;;;;3.13;1.02;;;;;;;9.64;77.83;98803.44;4992663;28;20546;-91
2021/05/04 04:41:58;;;;;;;5.55;0.73;;;;;;;9.84;78.89;98809.50;4991314;28;20031;-90
2021/05/04 04:44:23;;;;;;;1.83;0.73;;;;;;;9.85;77.19;98808.53;4992490;28;20026;-90
2021/05/04 04:46:49;;;;;;;2.67;0.82;;;;;;;9.84;76.29;98809.50;4991891;28;20026;-91
2021/05/04 04:49:16;;;;;;;3.75;1.92;;;;;;;9.76;77.51;98813.78;4992580;28;20084;-91
2021/05/04 04:51:46;;;;;;;2.80;0.70;;;;;;;9.91;77.52;98826.34;4992188;28;20038;-90
2021/05/04 04:54:12;;;;;;;4.75;0.57;;;;;;;10.04;76.35;98814.72;4992217;28;20492;-91
2021/05/04 04:56:37;;;;;;;6.82;0.82;;;;;;;9.73;77.59;98817.50;4991774;28;20109;-91
2021/05/04 04:59:04;;;;;;;4.00;0.63;;;;;;;9.67;77.51;98825.91;4992106;28;20040;-91
2021/05/04 05:01:29;;;;;;;5.38;1.20;;;;;;;10.13;76.39;98825.19;4991609;28;20030;-91
2021/05/04 05:03:55;;;;;;;3.13;0.75;;;;;;;10.07;76.61;98824.91;4992886;28;20023;-91
2021/05/04 05:06:21;;;;;;;8.57;0.90;;;;;;;10.01;75.47;98833.34;4974271;28;20484;-91
2021/05/04 05:08:51;;;;;;;3.08;0.80;;;;;;;10.05;75.96;98839.97;4992474;28;20081;-90
2021/05/04 05:11:17;;;;;;;3.20;0.70;;;;;;;10.20;74.76;98835.94;4990744;28;20034;-91
2021/05/04 05:13:44;;;;;;;2.25;0.77;;;;;;;9.78;76.53;98851.16;4972140;28;20026;-91
2021/05/04 05:16:10;;;;;;;3.80;0.70;;;;;;;9.93;77.83;98855.00;4989770;28;20029;-92
2021/05/04 05:18:35;;;;;;;3.95;1.25;;;;;;;10.19;76.57;98852.66;4991240;28;20030;-90
2021/05/04 05:21:01;;;;;;;8.13;0.82;;;;;;;10.06;75.29;98860.00;4991009;28;20362;-91
2021/05/04 05:23:27;;;;;;;1.00;0.47;;;;;;;9.97;75.66;98871.31;4991242;28;20034;-91
2021/05/04 05:25:52;;;;;;;4.47;0.98;;;;;;;9.89;74.49;98869.38;4991401;28;20389;-92
2021/05/04 05:28:17;;;;;;;3.42;0.73;;;;;;;10.03;74.33;98876.00;4991153;28;20033;-91
2021/05/04 05:30:44;;;;;;;3.47;0.77;;;;;;;10.51;74.13;98885.66;4989325;28;20073;-91
2021/05/04 05:33:09;;;;;;;3.67;0.77;;;;;;;9.97;74.69;98884.41;4992360;28;20033;-92
2021/05/04 05:35:35;;;;;;;3.10;0.52;;;;;;;10.35;73.01;98888.84;4991901;28;20035;-90
2021/05/04 05:38:03;;;;;;;6.22;0.80;;;;;;;10.22;72.89;98889.09;4992072;28;20117;-91
2021/05/04 05:40:28;;;;;;;4.03;0.50;;;;;;;10.59;71.93;98896.28;4992170;28;20031;-92
2021/05/04 05:42:54;;;;;;;2.88;0.50;;;;;;;10.64;71.09;98901.94;4994966;28;20539;-91
2021/05/04 05:45:19;;;;;;;10.93;1.15;;;;;;;10.70;72.61;98904.00;4994615;28;20034;-91
2021/05/04 05:47:44;;;;;;;7.47;1.00;;;;;;;10.81;71.32;98913.47;4995250;28;20134;-91
2021/05/04 05:50:10;;;;;;;3.85;1.17;;;;;;;10.75;72.48;98921.09;4995400;28;20105;-92
2021/05/04 05:52:35;;;;;;;1.48;0.50;;;;;;;10.32;72.48;98917.97;4993087;28;20117;-91
2021/05/04 05:55:01;;;;;;;4.13;0.75;;;;;;;10.47;71.33;98931.50;4994610;28;20026;-90
2021/05/04 05:57:26;;;;;;;5.22;0.60;;;;;;;10.59;70.92;98933.00;4993545;28;20042;-92
2021/05/04 05:59:51;;;;;;;4.68;0.65;;;;;;;10.24;71.69;98928.31;4995123;28;20101;-90
2021/05/04 06:02:17;;;;;;;8.15;1.05;;;;;;;10.30;72.45;98946.97;4995370;28;20064;-92
2021/05/04 06:04:42;;;;;;;3.13;0.98;;;;;;;10.51;70.73;98941.59;4995411;28;20045;-91
2021/05/04 06:07:07;;;;;;;1.95;0.60;;;;;;;11.06;70.52;98937.47;4995187;28;20039;-91
2021/05/04 06:09:33;;;;;;;7.32;0.98;;;;;;;10.75;69.59;98952.63;4994330;28;20496;-91
2021/05/04 06:11:58;;;;;;;1.63;0.50;;;;;;;10.84;69.11;98962.25;4976886;28;20022;-91
2021/05/04 06:14:24;;;;;;;3.08;0.70;;;;;;;10.80;68.55;98958.25;4990779;28;20031;-90
2021/05/04 06:16:49;;;;;;;3.17;0.40;;;;;;;10.79;70.81;98952.19;4994193;28;20096;-91
2021/05/04 06:19:14;;;;;;;5.55;1.08;;;;;;;11.24;68.84;98955.94;4994551;28;20037;-92
2021/05/04 06:21:40;;;;;;;4.13;1.50;;;;;;;10.89;69.56;98963.50;4994732;28;20418;-90
2021/05/04 06:24:06;;;;;;;4.32;0.80;;;;;;;10.92;67.74;98965.03;4994038;28;20611;-91
2021/05/04 06:26:31;;;;;;;6.32;0.73;;;;;;;11.36;68.40;98975.81;4993613;28;20381;-91
2021/05/04 06:28:56;;;;;;;4.43;1.02;;;;;;;11.55;67.98;98982.75;4994804;28;20022;-91
2021/05/04 06:31:22;;;;;;;4.30;0.80;;;;;;;11.54;66.12;98991.63;4993391;28;20038;-90
2021/05/04 06:33:48;;;;;;;4.93;0.63;;;;;;;12.51;62.60;98998.13;4992144;28;20027;-90
2021/05/04 06:36:13;;;;;;;3.80;0.60;;;;;;;13.69;60.43;98995.94;4993499;28;20477;-89
2021/05/04 06:38:39;;;;;;;5.45;0.50;;;;;;;12.30;61.29;99001.03;4994625;28;20113;-90
2021/05/04 06:41:04;;;;;;;3.92;0.90;;;;;;;12.59;63.63;99006.09;4994284;28;20033;-90
2021/05/04 06:43:31;;;;;;;5.28;0.80;;;;;;;12.95;62.05;99021.84;4992225;28;20038;-90
2021/05/04 06:45:57;;;;;;;3.10;0.60;;;;;;;12.41;63.32;99018.44;4977231;28;20110;-89
2021/05/04 06:48:22;;;;;;;5.10;1.73;;;;;;;12.71;61.31;99011.94;4995651;28;20042;-94
2021/05/04 06:50:47;;;;;;;2.80;0.60;;;;;;;12.57;60.94;99029.09;5002928;28;20030;-94
2021/05/04 06:53:13;;;;;;;6.40;1.50;;;;;;;12.43;61.98;99024.38;4997267;28;20023;-95
2021/05/04 06:55:38;;;;;;;3.53;0.98;;;;;;;12.44;61.26;99029.50;4996388;28;20026;-96
2021/05/04 06:58:04;;;;;;;3.90;0.63;;;;;;;12.58;61.54;99035.19;4996126;28;20392;-96
2021/05/04 07:00:29;;;;;;;2.63;0.70;;;;;;;12.72;60.33;99044.38;5003966;28;20026;-96
2021/05/04 07:02:55;;;;;;;4.70;0.95;;;;;;;13.83;57.39;99039.38;5003873;28;20030;-85
2021/05/04 07:05:21;;;;;;;3.15;0.68;;;;;;;14.26;55.75;99037.53;5610491;23;20883;-91
2021/05/04 07:07:47;;;;;;;2.47;1.02;;;;;;;13.08;58.48;99048.63;4997643;28;20057;-96
2021/05/04 07:10:13;;;;;;;3.42;0.57;;;;;;;13.51;57.46;99053.19;5001067;28;20058;-96
2021/05/04 07:12:41;;;;;;;5.80;0.85;;;;;;;13.04;60.07;99057.81;4995676;28;20030;-96
2021/05/04 07:15:07;;;;;;;3.97;1.15;;;;;;;13.23;58.29;99067.34;5023134;28;20018;-96
2021/05/04 07:17:33;;;;;;;2.95;0.70;;;;;;;12.26;62.75;99083.91;5011462;28;20034;-96
2021/05/04 07:19:58;;;;;;;7.70;0.88;;;;;;;12.28;63.50;99082.81;5009642;28;20042;-96
2021/05/04 07:22:26;;;;;;;3.10;0.63;;;;;;;11.66;63.81;99079.03;5009637;28;20045;-96
2021/05/04 07:24:52;;;;;;;2.08;0.60;;;;;;;12.08;63.22;99084.72;5008897;28;20049;-96
2021/05/04 07:27:17;;;;;;;2.80;0.45;;;;;;;11.82;64.02;99076.59;5013471;28;20484;-96
2021/05/04 07:29:43;;;;;;;2.65;0.73;;;;;;;11.81;63.07;99084.63;5179539;23;20073;-96
2021/05/04 07:32:09;;;;;;;3.70;0.70;;;;;;;12.78;59.16;99094.66;5023655;28;20029;-96
2021/05/04 07:34:35;;;;;;;1.55;0.60;;;;;;;13.53;56.41;99081.09;5484999;23;20072;-96
2021/05/04 07:37:01;;;;;;;3.83;0.70;;;;;;;14.26;55.44;99101.72;5502411;23;20038;-95
2021/05/04 07:47:12;;;;;;;9.18;0.95;;;;;;;13.01;59.81;99110.84;5339384;23;20050;-89
2021/05/04 07:49:43;;;;;;;3.75;0.82;;;;;;;13.32;58.80;99133.34;5025871;28;20112;-96
2021/05/04 07:54:36;;;;;;;5.93;0.90;;;;;;;12.63;57.97;99098.78;5140397;23;20050;-96
2021/05/04 07:57:02;;;;;;;4.88;0.80;;;;;;;12.40;59.38;99133.44;5122815;23;20029;-96
2021/05/04 07:59:28;;;;;;;4.80;0.75;;;;;;;12.60;57.91;99112.22;5292405;23;20089;-96
2021/05/04 08:01:53;;;;;;;4.43;0.80;;;;;;;12.33;61.21;99142.06;5012271;28;20022;-88
2021/05/04 08:04:19;;;;;;;4.47;0.73;;;;;;;12.60;59.21;99162.25;5012021;28;20030;-88
2021/05/04 08:06:44;;;;;;;2.47;0.55;;;;;;;12.65;58.40;99168.75;5012831;28;20477;-88
2021/05/04 08:09:09;;;;;;;6.88;0.73;;;;;;;12.39;60.05;99154.63;5012055;28;20495;-88
2021/05/04 08:11:35;;;;;;;6.20;1.30;;;;;;;12.81;58.93;99162.81;5012573;28;20080;-88
2021/05/04 08:14:02;;;;;;;3.80;0.93;;;;;;;12.43;59.04;99177.06;5012191;28;20076;-88
2021/05/04 08:16:29;;;;;;;3.25;0.70;;;;;;;13.16;58.39;99170.91;5011962;28;20407;-87
2021/05/04 08:18:54;;;;;;;8.18;1.02;;;;;;;12.46;60.76;99184.66;5011805;28;20040;-87
2021/05/04 08:21:21;;;;;;;1.13;0.50;;;;;;;13.16;57.26;99192.81;5013043;28;20030;-87
2021/05/04 08:23:46;;;;;;;5.40;0.98;;;;;;;12.80;60.18;99186.69;5010449;28;20028;-88
2021/05/04 08:26:15;;;;;;;2.22;0.50;;;;;;;12.65;59.04;99200.34;5011304;28;20030;-88
2021/05/04 08:28:41;;;;;;;3.38;0.60;;;;;;;12.76;59.41;99201.16;5009288;28;20034;-86
2021/05/04 08:31:06;;;;;;;2.03;0.75;;;;;;;13.72;56.52;99198.72;5012806;28;20503;-88
2021/05/04 08:33:32;;;;;;;11.27;0.70;;;;;;;13.64;54.94;99211.88;5011751;28;20464;-87
2021/05/04 08:35:57;;;;;;;2.20;0.70;;;;;;;13.33;57.49;99201.75;5011793;28;20033;-87
2021/05/04 08:38:23;;;;;;;4.15;0.63;;;;;;;13.23;56.03;99203.56;5011813;28;20434;-87
2021/05/04 08:40:48;;;;;;;1.45;0.40;;;;;;;12.84;56.99;99214.41;5011805;28;20540;-87
2021/05/04 08:43:13;;;;;;;5.85;0.73;;;;;;;13.05;58.27;99204.41;5012207;28;20030;-89
2021/05/04 08:45:45;;;;;;;1.67;0.55;;;;;;;13.21;59.22;99213.44;5012980;28;20113;-88
2021/05/04 08:48:14;;;;;;;3.00;0.68;;;;;;;13.65;58.44;99226.72;5012094;28;20120;-87
2021/05/04 08:50:40;;;;;;;2.13;0.60;;;;;;;13.00;58.43;99229.56;5012749;28;20041;-87
2021/05/04 08:53:05;;;;;;;3.60;0.80;;;;;;;13.69;59.61;99235.97;5013311;28;20018;-87
2021/05/04 08:55:31;;;;;;;3.03;0.73;;;;;;;14.97;52.83;99236.16;5012996;28;20029;-88
2021/05/04 08:57:56;;;;;;;2.53;0.40;;;;;;;14.93;53.41;99225.13;5012202;28;20033;-87
2021/05/04 09:00:21;;;;;;;5.22;0.93;;;;;;;14.23;55.22;99246.41;5010793;28;20538;-89
2021/05/04 09:05:48;;;;;;;5.60;0.80;;;;;;;14.88;52.49;99251.19;5009274;28;20069;-87
2021/05/04 09:08:33;;;;;;;7.90;1.27;;;;;;;14.61;52.41;99250.44;5011023;28;20519;-87
2021/05/04 09:11:31;;;;;;;2.17;0.80;;;;;;;14.13;54.10;99249.16;5001945;28;20057;-86
2021/05/04 09:21:56;;;;;;;3.97;1.10;;;;;;;16.06;45.66;99277.47;5014878;28;20028;-87
2021/05/04 09:24:25;;;;;;;3.30;0.88;;;;;;;15.83;46.71;99275.50;4997443;28;20472;-87
2021/05/04 09:27:06;;;;;;;6.07;1.25;;;;;;;14.46;48.80;99265.19;5015470;28;20026;-87
2021/05/04 09:29:37;;;;;;;6.60;1.27;;;;;;;13.84;49.67;99276.66;5012687;28;20488;-82
2021/05/04 09:32:19;;;;;;;3.30;0.70;;;;;;;14.83;50.91;99296.59;5014468;28;20041;-82
2021/05/04 09:34:54;;;;;;;6.47;1.20;;;;;;;14.17;50.01;99298.00;5015013;28;20200;-82
2021/05/04 09:37:23;;;;;;;4.82;1.00;;;;;;;14.01;51.36;99304.00;5014532;28;20037;-83
2021/05/04 09:39:49;;;;;;;6.68;1.65;;;;;;;14.07;50.39;99298.09;5014892;28;20417;-83
2021/05/04 09:42:14;;;;;;;8.00;1.40;;;;;;;13.79;53.10;99305.31;5014950;28;20109;-83
2021/05/04 09:44:42;;;;;;;14.82;2.22;;;;;;;13.87;52.36;99299.28;5014722;28;20202;-83
2021/05/04 09:47:09;;;;;;;6.63;1.20;;;;;;;14.93;49.64;99316.78;5015075;28;20030;-84
2021/05/04 09:49:37;;;;;;;5.60;1.00;;;;;;;16.14;45.98;99303.13;5014524;28;20041;-83
2021/05/04 09:55:15;;;;;;;5.93;0.80;;;;;;;14.84;46.41;99306.16;5014987;28;20022;-83
2021/05/04 09:57:44;;;;;;;6.57;1.10;;;;;;;14.97;47.98;99318.97;5014930;28;20101;-83
2021/05/04 10:00:12;;;;;;;5.45;0.85;;;;;;;15.41;47.25;99312.66;5014334;28;20057;-83
2021/05/04 10:02:38;;;;;;;7.03;0.93;;;;;;;14.70;46.61;99320.00;5014796;28;20026;-83
2021/05/04 10:05:07;;;;;;;6.38;1.05;;;;;;;15.59;46.81;99326.56;5014192;28;20026;-84
2021/05/04 10:07:33;;;;;;;7.30;1.35;;;;;;;15.19;45.16;99324.66;5014621;28;20037;-84
2021/05/04 10:10:03;;;;;;;7.28;1.23;;;;;;;15.04;46.00;99335.81;5014752;28;20105;-83
2021/05/04 10:12:29;;;;;;;3.83;0.75;;;;;;;14.80;48.55;99327.81;5014108;28;20029;-83
2021/05/04 10:14:59;;;;;;;8.18;1.60;;;;;;;15.40;46.29;99342.72;5014665;28;20036;-83
2021/05/04 10:17:25;;;;;;;5.70;1.55;;;;;;;14.47;48.80;99352.19;5014415;28;20056;-83
2021/05/04 10:19:51;;;;;;;9.77;2.53;;;;;;;15.13;45.78;99346.44;5013537;28;20048;-83
2021/05/04 10:22:17;;;;;;;6.55;1.00;;;;;;;15.49;44.59;99335.66;5013890;28;20483;-84
2021/05/04 10:24:44;;;;;;;9.32;2.10;;;;;;;14.81;45.81;99353.22;5003083;28;20265;-84
2021/05/04 10:27:10;;;;;;;5.47;0.90;;;;;;;14.98;45.15;99364.72;5013178;28;20037;-83
2021/05/04 10:29:41;;;;;;;7.57;1.17;;;;;;;15.19;44.69;99365.13;5013690;28;20022;-84
2021/05/04 10:32:12;;;;;;;9.02;1.63;;;;;;;15.82;43.92;99363.84;5007531;28;20519;-84
2021/05/04 10:34:39;;;;;;;8.85;1.58;;;;;;;16.06;45.64;99357.72;5013501;28;20048;-84
2021/05/04 10:37:13;;;;;;;5.07;0.65;;;;;;;16.27;42.65;99372.28;5013972;28;20034;-84
2021/05/04 10:39:45;;;;;;;5.82;0.90;;;;;;;15.36;43.48;99368.66;5013529;28;21677;-84
2021/05/04 10:42:12;;;;;;;;;;;;;;;15.11;43.51;99377.50;5015879;28;20030;-84
2021/05/04 10:44:59;;;;;;;7.05;1.10;;;;;;;15.56;41.90;99378.97;5008705;28;19925;-84
2021/05/04 10:47:42;;;;;;;4.82;1.10;;;;;;;15.00;44.42;99374.13;5012503;28;20753;-84
2021/05/04 10:50:22;;;;;;;6.97;2.28;;;;;;;17.48;42.56;99370.50;5013199;28;20040;-84
2021/05/04 10:52:51;;;;;;;6.25;1.15;;;;;;;19.01;41.27;99371.22;5012081;28;20033;-83
2021/05/04 10:55:18;;;;;;;7.25;1.25;;;;;;;20.03;34.54;99355.41;5012739;28;20037;-84
2021/05/04 10:57:59;;;;;;;6.07;1.25;;;;;;;19.46;36.05;99389.00;5012980;28;20032;-84
2021/05/04 11:00:43;;;;;;;7.57;1.35;;;;;;;18.97;35.28;99398.38;5011929;28;20030;-85
2021/05/04 11:03:33;;;;;;;8.70;1.70;;;;;;;19.56;36.02;99398.31;5004022;28;20101;-85
2021/05/04 11:06:02;;;;;;;6.63;1.33;;;;;;;18.20;36.81;99396.75;5010914;28;20519;-84
2021/05/04 11:08:43;;;;;;;5.93;1.10;;;;;;;19.49;37.52;99399.25;5012737;28;20044;-84
2021/05/04 11:11:35;;;;;;;7.38;1.45;;;;;;;17.64;37.15;99400.41;4996721;28;20036;-84
2021/05/04 11:14:18;;;;;;;8.82;1.25;;;;;;;17.92;35.93;99405.25;5012402;28;20535;-84
2021/05/04 11:16:45;;;;;;;4.30;1.00;;;;;;;18.27;36.70;99410.19;5011170;28;20373;-84
2021/05/04 11:19:18;;;;;;;8.43;1.60;;;;;;;18.13;35.52;99406.47;5012404;28;20037;-84
2021/05/04 11:21:47;;;;;;;5.20;1.25;;;;;;;17.31;37.42;99413.00;5000364;28;20025;-85
2021/05/04 11:24:12;;;;;;;6.35;1.35;;;;;;;17.09;37.12;99419.06;5013009;28;20492;-85
2021/05/04 11:26:50;;;;;;;4.97;1.10;;;;;;;17.69;36.23;99405.19;5018557;28;20064;-85
2021/05/04 11:29:18;;;;;;;6.55;1.65;;;;;;;18.17;36.47;99429.84;5011673;28;20045;-84
2021/05/04 11:31:45;;;;;;;8.40;0.85;;;;;;;18.63;35.51;99431.63;5024085;28;20029;-85
2021/05/04 11:34:52;;;;;;;4.85;0.90;;;;;;;18.13;36.44;99417.91;5013064;28;20084;-84
2021/05/04 11:37:21;;;;;;;9.60;1.02;;;;;;;17.50;36.87;99417.09;5011768;28;20100;-84
2021/05/04 11:39:53;;;;;;;4.50;0.88;;;;;;;17.19;37.53;99425.00;5013042;28;20153;-84
2021/05/04 11:42:20;;;;;;;5.95;1.38;;;;;;;18.44;35.91;99427.63;5011479;28;20034;-84
2021/05/04 11:44:46;;;;;;;4.85;1.10;;;;;;;18.60;34.18;99422.19;5012280;28;20051;-84
2021/05/04 11:47:21;;;;;;;3.25;0.82;;;;;;;18.69;35.82;99436.22;5012294;28;20480;-84
2021/05/04 11:49:48;;;;;;;4.38;0.85;;;;;;;18.18;33.37;99426.16;5012306;28;20034;-84
2021/05/04 11:52:16;;;;;;;7.47;0.70;;;;;;;18.54;33.88;99428.22;5011981;28;20034;-82
2021/05/04 11:54:44;;;;;;;6.50;1.08;;;;;;;18.29;34.80;99418.78;5012500;28;20105;-84